Centenary, Indiana
Current Conditions -  °F | °C
As of 3:35 PM on Thursday 27 Nov 2014 (Local Time) from KPRG Reporting Station
Overcast Overcast  
Wind Chill: 19°   Ceiling: 3700
Heat Index: 30°   Visibility: 10mi
Dew Point: 22°   Wind: 14mph
Humidity: 73%   Direction: 310°NW
Pressure: 30.39"   Gusts: NA
Location:  39.6513°N, 87.4607°W
Report Text: KPRG 272035Z AUTO 31012KT 10SM SCT027 OVC037 M01/M05 A3039 RMK AO2 T10131055
Loading
Personal Weather Stations






























Interactive Weather Map New forecast layout! Learn more

10-Day Weather Forecast

Advertisements
Track Severe Weather on mobile